createdAt,value
2018-05-27T00:00:36.172Z,88.60
2018-05-27T00:03:04.578Z,88.60
2018-05-27T00:05:33.135Z,88.60
2018-05-27T00:08:01.524Z,88.50
2018-05-27T00:10:29.946Z,88.50
2018-05-27T00:13:05.552Z,88.50
2018-05-27T00:15:34.376Z,88.00
2018-05-27T00:18:02.764Z,87.80
2018-05-27T00:20:31.164Z,87.50
2018-05-27T00:23:00.386Z,87.70
2018-05-27T00:25:28.768Z,87.70
2018-05-27T00:27:57.174Z,87.80
2018-05-27T00:30:25.569Z,88.10
2018-05-27T00:32:53.972Z,88.60
2018-05-27T00:35:23.147Z,88.60
2018-05-27T00:37:51.525Z,88.60
2018-05-27T00:40:21.281Z,89.20
2018-05-27T00:42:49.660Z,89.40
2018-05-27T00:45:18.092Z,89.10
2018-05-27T00:47:46.476Z,89.50
2018-05-27T00:50:14.901Z,89.30
2018-05-27T00:52:43.285Z,89.10
2018-05-27T00:55:11.665Z,89.40
2018-05-27T00:57:40.091Z,89.30
2018-05-27T01:00:08.498Z,89.40
2018-05-27T01:02:37.685Z,90.00
2018-05-27T01:05:07.149Z,90.00
2018-05-27T01:07:36.913Z,90.00
2018-05-27T01:10:06.065Z,90.50
2018-05-27T01:12:34.881Z,90.50
2018-05-27T01:15:03.313Z,90.60
2018-05-27T01:17:31.689Z,90.50
2018-05-27T01:20:00.105Z,90.30
2018-05-27T01:22:28.492Z,90.20
2018-05-27T01:24:56.904Z,89.80
2018-05-27T01:27:25.288Z,89.40
2018-05-27T01:29:53.886Z,89.40
2018-05-27T01:32:22.265Z,88.30
2018-05-27T01:34:50.653Z,88.10
2018-05-27T01:39:52.613Z,89.30
2018-05-27T01:42:21.024Z,89.60
2018-05-27T01:44:49.420Z,89.20
2018-05-27T01:47:18.276Z,88.90
2018-05-27T01:49:46.656Z,89.40
2018-05-27T01:52:15.032Z,88.20
2018-05-27T01:54:43.432Z,88.50
2018-05-27T01:57:11.814Z,89.40
2018-05-27T01:59:40.212Z,89.50
2018-05-27T02:02:08.598Z,89.20
2018-05-27T02:04:37.809Z,89.60
2018-05-27T02:07:06.196Z,89.60
2018-05-27T02:09:34.576Z,89.20
2018-05-27T02:12:02.988Z,89.10
2018-05-27T02:14:31.366Z,89.70
2018-05-27T02:16:59.776Z,89.50
2018-05-27T02:19:28.162Z,89.50
2018-05-27T02:21:56.583Z,89.70
2018-05-27T02:24:25.001Z,89.50
2018-05-27T02:26:53.388Z,89.50
2018-05-27T02:29:21.792Z,90.00
2018-05-27T02:31:51.277Z,90.20
2018-05-27T02:34:19.703Z,90.20
2018-05-27T02:36:48.095Z,90.00
2018-05-27T02:39:16.487Z,90.00
2018-05-27T02:41:44.893Z,90.00
2018-05-27T02:44:13.276Z,90.00
2018-05-27T02:46:41.677Z,89.90
2018-05-27T02:49:10.828Z,90.10
2018-05-27T02:51:39.397Z,90.10
2018-05-27T02:54:07.829Z,90.00
2018-05-27T02:56:36.977Z,89.70
2018-05-27T02:59:05.376Z,89.70
2018-05-27T03:01:33.756Z,90.20
2018-05-27T03:04:02.164Z,90.10
2018-05-27T03:06:31.311Z,90.00
2018-05-27T03:08:59.886Z,90.00
2018-05-27T03:11:28.273Z,89.80
2018-05-27T03:13:56.647Z,90.10
2018-05-27T03:16:25.058Z,90.10
2018-05-27T03:18:53.453Z,90.00
2018-05-27T03:21:22.620Z,90.30
2018-05-27T03:23:51.044Z,90.30
2018-05-27T03:26:19.815Z,90.60
2018-05-27T03:28:48.969Z,90.40
2018-05-27T03:31:17.346Z,90.30
2018-05-27T03:33:45.750Z,90.40
2018-05-27T03:36:14.144Z,90.40
2018-05-27T03:38:43.319Z,90.50
2018-05-27T03:41:11.779Z,90.50
2018-05-27T03:43:40.366Z,90.40
2018-05-27T03:46:08.741Z,90.40
2018-05-27T03:48:37.118Z,90.40
2018-05-27T03:51:05.517Z,90.60
2018-05-27T03:53:33.907Z,90.70
2018-05-27T03:56:02.305Z,90.60
2018-05-27T03:58:31.580Z,90.80
2018-05-27T04:01:00.945Z,90.70
2018-05-27T04:03:29.320Z,90.70
2018-05-27T04:06:15.832Z,90.60
2018-05-27T04:08:44.204Z,90.50
2018-05-27T04:11:12.585Z,90.50
2018-05-27T04:13:40.984Z,90.40
2018-05-27T04:16:09.356Z,90.60
2018-05-27T04:18:37.778Z,91.00
2018-05-27T04:21:06.917Z,91.50
2018-05-27T04:23:35.501Z,91.50
2018-05-27T04:26:03.929Z,91.50
2018-05-27T04:28:33.170Z,91.60
2018-05-27T04:31:01.509Z,91.60
2018-05-27T04:33:30.660Z,92.30
2018-05-27T04:35:59.078Z,92.30
2018-05-27T04:38:27.468Z,92.00
2018-05-27T04:40:56.652Z,91.60
2018-05-27T04:43:25.034Z,91.50
2018-05-27T04:45:54.181Z,91.50
2018-05-27T04:48:22.583Z,91.50
2018-05-27T04:50:50.960Z,91.40
2018-05-27T04:53:19.373Z,91.40
2018-05-27T04:55:48.518Z,91.40
2018-05-27T04:58:16.941Z,91.40
2018-05-27T05:00:46.100Z,91.30
2018-05-27T05:03:15.010Z,91.20
2018-05-27T05:05:43.412Z,90.90
2018-05-27T05:08:12.565Z,91.10
2018-05-27T05:10:40.969Z,91.00
2018-05-27T05:13:09.357Z,91.10
2018-05-27T05:15:38.553Z,90.90
2018-05-27T05:18:06.934Z,90.70
2018-05-27T05:20:36.080Z,90.70
2018-05-27T05:23:04.499Z,90.60
2018-05-27T05:25:32.890Z,90.30
2018-05-27T05:28:02.060Z,90.00
2018-05-27T05:30:30.448Z,89.70
2018-05-27T05:32:59.003Z,89.10
2018-05-27T05:35:27.393Z,88.40
2018-05-27T05:37:55.780Z,88.30
2018-05-27T05:40:24.228Z,87.30
2018-05-27T05:42:52.627Z,87.50
2018-05-27T05:45:21.038Z,87.50
2018-05-27T05:47:49.416Z,86.20
2018-05-27T05:50:17.843Z,86.30
2018-05-27T05:52:46.228Z,85.90
2018-05-27T05:55:14.642Z,85.20
2018-05-27T05:57:43.080Z,85.20
2018-05-27T06:00:11.469Z,83.70
2018-05-27T06:02:39.873Z,83.10
2018-05-27T06:05:08.255Z,83.70
2018-05-27T06:07:36.815Z,84.00
2018-05-27T06:10:05.204Z,83.30
2018-05-27T06:12:33.589Z,81.70
2018-05-27T06:15:01.993Z,80.70
2018-05-27T06:17:31.140Z,81.30
2018-05-27T06:19:59.548Z,81.00
2018-05-27T06:22:27.940Z,80.60
2018-05-27T06:24:57.704Z,81.00
2018-05-27T06:27:26.905Z,80.60
2018-05-27T06:29:55.281Z,80.50
2018-05-27T06:32:23.684Z,80.30
2018-05-27T06:34:52.093Z,78.20
2018-05-27T06:37:21.277Z,77.20
2018-05-27T06:39:49.645Z,77.10
2018-05-27T06:42:18.724Z,76.20
2018-05-27T06:44:47.104Z,74.90
2018-05-27T06:47:15.475Z,74.40
2018-05-27T06:49:43.881Z,75.30
2018-05-27T06:52:12.268Z,72.90
2018-05-27T06:54:41.624Z,71.80
2018-05-27T06:57:10.053Z,71.80
2018-05-27T06:59:39.402Z,72.00
2018-05-27T07:02:07.789Z,72.00
2018-05-27T07:04:36.215Z,70.70
2018-05-27T07:07:04.592Z,71.00
2018-05-27T07:09:32.970Z,70.10
2018-05-27T07:12:01.375Z,69.40
2018-05-27T07:14:29.760Z,69.90
2018-05-27T07:16:58.185Z,69.40
2018-05-27T07:19:26.575Z,69.40
2018-05-27T07:21:54.950Z,67.80
2018-05-27T07:24:24.865Z,66.10
2018-05-27T07:26:53.244Z,66.10
2018-05-27T07:29:21.656Z,65.40
2018-05-27T07:31:50.843Z,63.00
2018-05-27T07:34:19.683Z,63.00
2018-05-27T07:36:48.065Z,62.90
2018-05-27T07:39:16.518Z,62.10
2018-05-27T07:41:44.920Z,60.00
2018-05-27T07:44:13.305Z,60.60
2018-05-27T07:46:41.730Z,60.80
2018-05-27T07:49:10.905Z,59.80
2018-05-27T07:51:39.341Z,59.70
2018-05-27T07:54:07.717Z,59.80
2018-05-27T07:56:36.108Z,59.00
2018-05-27T07:59:04.513Z,58.10
2018-05-27T08:01:32.927Z,57.90
2018-05-27T08:04:02.089Z,57.30
2018-05-27T08:06:30.474Z,57.20
2018-05-27T08:08:59.025Z,57.80
2018-05-27T08:11:27.396Z,58.00
2018-05-27T08:13:55.768Z,58.20
2018-05-27T08:16:24.184Z,59.40
2018-05-27T08:18:52.561Z,59.00
2018-05-27T08:21:20.966Z,59.20
2018-05-27T08:23:50.114Z,60.00
2018-05-27T08:26:18.539Z,60.10
2018-05-27T08:28:47.696Z,59.70
2018-05-27T08:31:16.072Z,59.60
2018-05-27T08:33:44.469Z,59.30
2018-05-27T08:36:12.846Z,60.30
2018-05-27T08:38:41.261Z,60.60
2018-05-27T08:41:10.453Z,59.90
2018-05-27T08:43:39.797Z,59.00
2018-05-27T08:46:08.183Z,58.90
2018-05-27T08:48:36.556Z,58.60
2018-05-27T08:51:05.144Z,59.50
2018-05-27T08:53:33.524Z,60.00
2018-05-27T08:56:01.942Z,59.30
2018-05-27T08:58:30.323Z,59.10
2018-05-27T09:00:59.473Z,58.30
2018-05-27T09:03:27.884Z,58.30
2018-05-27T09:05:56.317Z,57.80
2018-05-27T09:08:24.729Z,57.80
2018-05-27T09:10:53.120Z,57.50
2018-05-27T09:13:21.780Z,57.20
2018-05-27T09:15:50.173Z,57.80
2018-05-27T09:18:18.857Z,58.20
2018-05-27T09:20:47.415Z,57.50
2018-05-27T09:23:15.831Z,57.70
2018-05-27T09:25:44.239Z,57.10
2018-05-27T09:28:13.381Z,57.00
2018-05-27T09:30:41.809Z,57.00
2018-05-27T09:33:10.967Z,55.80
2018-05-27T09:35:39.360Z,55.70
2018-05-27T09:38:07.759Z,56.20
2018-05-27T09:40:36.905Z,55.00
2018-05-27T09:43:05.306Z,55.00
2018-05-27T09:45:33.727Z,53.30
2018-05-27T09:48:03.110Z,52.00
2018-05-27T09:50:32.438Z,51.90
2018-05-27T09:53:03.090Z,51.90
2018-05-27T09:55:32.804Z,50.60
2018-05-27T09:58:01.325Z,50.60
2018-05-27T10:00:29.664Z,50.30
2018-05-27T10:02:58.048Z,50.70
2018-05-27T10:05:26.752Z,50.30
2018-05-27T10:07:55.169Z,49.80
2018-05-27T10:10:26.241Z,48.30
2018-05-27T10:12:54.620Z,48.30
2018-05-27T10:15:23.895Z,49.20
2018-05-27T10:17:52.356Z,48.90
2018-05-27T10:20:21.822Z,49.10
2018-05-27T10:22:50.307Z,49.00
2018-05-27T10:25:18.947Z,49.60
2018-05-27T10:27:47.487Z,50.30
2018-05-27T10:30:15.876Z,51.00
2018-05-27T10:32:44.531Z,50.90
2018-05-27T10:35:13.220Z,51.40
2018-05-27T10:37:41.596Z,50.10
2018-05-27T10:40:10.186Z,50.20
2018-05-27T10:42:39.353Z,50.00
2018-05-27T10:45:07.756Z,50.00
2018-05-27T10:47:36.139Z,48.40
2018-05-27T10:50:04.701Z,49.10
2018-05-27T10:52:33.133Z,47.10
2018-05-27T10:55:02.320Z,44.90
2018-05-27T10:57:30.857Z,44.80
2018-05-27T10:59:59.453Z,45.10
2018-05-27T11:02:27.841Z,43.70
2018-05-27T11:04:56.251Z,42.40
2018-05-27T11:07:25.437Z,40.10
2018-05-27T11:09:53.815Z,40.10
2018-05-27T11:12:24.755Z,38.20
2018-05-27T11:14:53.153Z,38.20
2018-05-27T11:17:22.294Z,38.70
2018-05-27T11:19:56.460Z,38.70
2018-05-27T11:22:24.844Z,38.20
2018-05-27T11:24:53.257Z,37.80
2018-05-27T11:27:21.851Z,37.20
2018-05-27T11:29:50.543Z,36.30
2018-05-27T11:32:19.096Z,36.10
2018-05-27T11:34:47.549Z,36.30
2018-05-27T11:37:16.010Z,35.10
2018-05-27T11:39:45.833Z,34.20
2018-05-27T11:42:20.610Z,34.30
2018-05-27T11:44:49.768Z,35.60
2018-05-27T11:47:32.462Z,32.60
2018-05-27T11:50:13.727Z,32.60
2018-05-27T11:52:59.175Z,34.10
2018-05-27T11:55:40.293Z,34.50
2018-05-27T11:58:24.032Z,34.60
2018-05-27T12:01:03.234Z,34.00
2018-05-27T12:03:36.293Z,34.30
2018-05-27T12:06:14.541Z,34.20
2018-05-27T12:08:44.593Z,34.10
2018-05-27T12:11:13.757Z,33.50
2018-05-27T12:13:42.184Z,33.40
2018-05-27T12:16:11.325Z,33.20
2018-05-27T12:18:43.162Z,33.20
2018-05-27T12:21:12.511Z,32.90
2018-05-27T12:23:41.185Z,32.80
2018-05-27T12:26:11.116Z,33.30
2018-05-27T12:28:41.025Z,33.30
2018-05-27T12:31:10.229Z,33.20
2018-05-27T12:33:39.398Z,34.20
2018-05-27T12:36:08.133Z,34.20
2018-05-27T12:38:36.533Z,34.10
2018-05-27T12:41:04.941Z,33.90
2018-05-27T12:43:33.326Z,35.10
2018-05-27T12:46:01.745Z,34.70
2018-05-27T12:48:30.887Z,35.10
2018-05-27T12:50:59.308Z,35.10
2018-05-27T12:53:28.489Z,35.00
2018-05-27T12:55:56.881Z,35.00
2018-05-27T12:58:26.794Z,34.50
2018-05-27T13:00:55.173Z,34.50
2018-05-27T13:03:23.581Z,34.70
2018-05-27T13:05:52.000Z,32.80
2018-05-27T13:08:20.397Z,32.00
2018-05-27T13:10:48.798Z,32.50
2018-05-27T13:13:17.952Z,33.00
2018-05-27T13:15:46.370Z,33.00
2018-05-27T13:18:15.584Z,32.70
2018-05-27T13:20:44.924Z,31.80
2018-05-27T13:23:13.337Z,31.60
2018-05-27T13:25:41.716Z,31.00
2018-05-27T13:28:10.112Z,30.30
2018-05-27T13:30:39.272Z,29.00
2018-05-27T13:33:07.676Z,29.00
2018-05-27T13:35:36.067Z,28.40
2018-05-27T13:38:05.700Z,28.20
2018-05-27T13:40:34.085Z,28.20
2018-05-27T13:43:02.558Z,28.30
2018-05-27T13:45:30.997Z,28.30
2018-05-27T13:47:59.376Z,28.00
2018-05-27T13:50:28.213Z,28.20
2018-05-27T13:52:57.224Z,28.70
2018-05-27T13:55:29.416Z,29.00
2018-05-27T13:57:59.993Z,29.00
2018-05-27T14:00:30.424Z,30.00
2018-05-27T14:03:00.096Z,29.90
2018-05-27T14:05:28.479Z,30.00
2018-05-27T14:08:01.286Z,31.10
2018-05-27T14:10:31.434Z,31.00
2018-05-27T14:13:01.354Z,32.00
2018-05-27T14:15:31.473Z,33.00
2018-05-27T14:18:01.643Z,33.90
2018-05-27T14:20:30.804Z,34.30
2018-05-27T14:23:00.565Z,34.30
2018-05-27T14:25:29.044Z,35.80
2018-05-27T14:27:58.343Z,35.30
2018-05-27T14:30:27.464Z,34.10
2018-05-27T14:32:58.009Z,35.80
2018-05-27T14:35:28.373Z,35.70
2018-05-27T14:37:58.420Z,35.70
2018-05-27T14:40:28.698Z,35.70
2018-05-27T14:43:11.593Z,36.00
2018-05-27T14:45:41.125Z,37.60
2018-05-27T14:48:09.507Z,37.50
2018-05-27T14:50:38.458Z,37.70
2018-05-27T14:53:08.093Z,37.20
2018-05-27T14:55:38.289Z,38.60
2018-05-27T14:58:08.080Z,38.60
2018-05-27T15:00:37.333Z,38.50
2018-05-27T15:03:05.744Z,38.80
2018-05-27T15:05:34.121Z,37.10
2018-05-27T15:08:10.391Z,38.00
2018-05-27T15:10:39.206Z,37.40
2018-05-27T15:13:20.761Z,36.40
2018-05-27T15:15:56.846Z,37.70
2018-05-27T15:18:25.601Z,38.30
2018-05-27T15:20:56.137Z,37.80
2018-05-27T15:23:25.777Z,35.30
2018-05-27T15:25:57.935Z,36.50
2018-05-27T15:28:26.837Z,37.50
2018-05-27T15:30:56.394Z,36.60
2018-05-27T15:33:26.383Z,36.90
2018-05-27T15:35:56.209Z,36.80
2018-05-27T15:38:26.005Z,36.20
2018-05-27T15:40:56.373Z,35.40
2018-05-27T15:43:25.873Z,36.10
2018-05-27T15:45:55.893Z,37.40
2018-05-27T15:48:28.774Z,37.30
2018-05-27T15:51:03.874Z,37.70
2018-05-27T15:53:52.774Z,36.30
2018-05-27T15:56:35.297Z,36.30
2018-05-27T16:05:23.299Z,38.60
2018-05-27T16:07:51.862Z,39.70
2018-05-27T16:10:20.287Z,39.70
2018-05-27T16:12:48.656Z,39.10
2018-05-27T16:15:18.104Z,39.50
2018-05-27T16:17:46.860Z,38.30
2018-05-27T16:20:16.308Z,39.50
2018-05-27T16:22:46.039Z,39.20
2018-05-27T16:25:15.164Z,39.20
2018-05-27T16:27:43.677Z,39.10
2018-05-27T16:30:13.640Z,39.40
2018-05-27T16:32:43.538Z,39.40
2018-05-27T16:35:14.226Z,39.70
2018-05-27T16:37:44.220Z,40.30
2018-05-27T16:40:13.930Z,40.30
2018-05-27T16:42:43.722Z,39.20
2018-05-27T16:45:13.481Z,38.70
2018-05-27T16:47:43.686Z,38.20
2018-05-27T16:50:13.925Z,38.20
2018-05-27T16:52:43.766Z,37.90
2018-05-27T16:55:15.829Z,37.80
2018-05-27T16:57:46.516Z,39.00
2018-05-27T17:00:17.369Z,38.50
2018-05-27T17:02:46.208Z,38.30
2018-05-27T17:05:15.366Z,38.80
2018-05-27T17:07:44.770Z,38.70
2018-05-27T17:10:13.940Z,38.30
2018-05-27T17:12:43.548Z,39.10
2018-05-27T17:15:12.624Z,39.10
2018-05-27T17:17:42.155Z,39.00
2018-05-27T17:20:11.105Z,39.00
2018-05-27T17:22:39.797Z,39.00
2018-05-27T17:25:08.198Z,38.30
2018-05-27T17:27:36.812Z,37.90
2018-05-27T17:30:06.413Z,38.00
2018-05-27T17:32:35.133Z,37.90
2018-05-27T17:35:04.382Z,38.10
2018-05-27T17:37:34.038Z,39.10
2018-05-27T17:40:02.946Z,39.80
2018-05-27T17:42:31.364Z,40.50
2018-05-27T17:45:00.666Z,41.10
2018-05-27T17:47:30.228Z,41.70
2018-05-27T17:50:20.284Z,41.60
2018-05-27T17:52:56.033Z,41.50
2018-05-27T17:55:51.528Z,41.80
2018-05-27T18:01:17.297Z,42.70
2018-05-27T18:03:45.665Z,43.00
2018-05-27T18:06:14.768Z,43.00
2018-05-27T18:08:44.141Z,43.20
2018-05-27T18:11:14.077Z,43.40
2018-05-27T18:13:44.145Z,44.10
2018-05-27T18:16:14.876Z,44.20
2018-05-27T18:18:44.081Z,44.30
2018-05-27T18:21:14.460Z,45.00
2018-05-27T18:23:44.818Z,45.40
2018-05-27T18:26:13.662Z,45.70
2018-05-27T18:28:42.165Z,46.00
2018-05-27T18:31:11.550Z,47.00
2018-05-27T18:33:40.495Z,47.00
2018-05-27T18:36:09.712Z,48.20
2018-05-27T18:38:38.884Z,49.20
2018-05-27T18:41:07.264Z,49.10
2018-05-27T18:43:35.741Z,49.10
2018-05-27T18:46:04.117Z,49.20
2018-05-27T18:48:33.009Z,49.30
2018-05-27T18:51:01.391Z,50.10
2018-05-27T18:53:30.108Z,50.40
2018-05-27T18:55:58.505Z,52.00
2018-05-27T18:58:26.964Z,52.80
2018-05-27T19:00:55.523Z,53.20
2018-05-27T19:03:24.693Z,54.20
2018-05-27T19:05:53.236Z,54.10
2018-05-27T19:08:21.672Z,55.00
2018-05-27T19:10:50.255Z,54.60
2018-05-27T19:13:19.858Z,55.70
2018-05-27T19:15:49.176Z,56.80
2018-05-27T19:18:18.368Z,56.40
2018-05-27T19:20:46.818Z,56.40
2018-05-27T19:23:15.338Z,56.20
2018-05-27T19:25:44.082Z,57.00
2018-05-27T19:28:12.966Z,57.80
2018-05-27T19:30:41.429Z,57.70
2018-05-27T19:33:10.009Z,58.40
2018-05-27T19:35:38.437Z,59.50
2018-05-27T19:38:08.527Z,61.20
2018-05-27T19:40:37.454Z,61.20
2018-05-27T19:43:05.902Z,61.20
2018-05-27T19:45:34.294Z,60.00
2018-05-27T19:48:04.063Z,60.80
2018-05-27T19:50:32.467Z,61.40
2018-05-27T19:53:00.882Z,61.80
2018-05-27T19:55:29.592Z,62.90
2018-05-27T19:58:00.164Z,63.90
2018-05-27T20:00:29.366Z,63.70
2018-05-27T20:02:58.639Z,63.60
2018-05-27T20:05:27.613Z,63.50
2018-05-27T20:07:57.567Z,64.30
2018-05-27T20:10:27.706Z,64.50
2018-05-27T20:12:56.678Z,64.40
2018-05-27T20:15:25.388Z,64.20
2018-05-27T20:17:54.238Z,64.60
2018-05-27T20:20:22.705Z,64.90
2018-05-27T20:22:51.570Z,67.10
2018-05-27T20:25:21.059Z,67.00
2018-05-27T20:27:51.691Z,67.60
2018-05-27T20:30:21.679Z,69.20
2018-05-27T20:32:50.163Z,69.20
2018-05-27T20:35:19.458Z,70.40
2018-05-27T20:37:48.966Z,70.30
2018-05-27T20:40:18.185Z,70.90
2018-05-27T20:42:46.664Z,70.80
2018-05-27T20:45:15.553Z,70.50
2018-05-27T20:47:45.270Z,71.80
2018-05-27T20:50:18.461Z,71.70
2018-05-27T20:52:47.167Z,71.30
2018-05-27T20:55:16.723Z,72.40
2018-05-27T20:57:45.341Z,72.40
2018-05-27T21:00:14.614Z,73.20
2018-05-27T21:02:43.878Z,73.10
2018-05-27T21:05:12.481Z,72.90
2018-05-27T21:07:41.028Z,73.50
2018-05-27T21:10:09.651Z,74.90
2018-05-27T21:12:38.484Z,75.10
2018-05-27T21:15:07.936Z,75.90
2018-05-27T21:17:36.783Z,75.00
2018-05-27T21:20:05.232Z,75.00
2018-05-27T21:22:33.704Z,75.30
2018-05-27T21:25:02.309Z,75.60
2018-05-27T21:27:31.523Z,75.80
2018-05-27T21:30:01.094Z,75.60
2018-05-27T21:32:49.366Z,75.60
2018-05-27T21:35:19.709Z,76.00
2018-05-27T21:37:48.104Z,76.00
2018-05-27T21:40:16.489Z,74.60
2018-05-27T21:42:45.030Z,74.50
2018-05-27T21:45:13.406Z,75.10
2018-05-27T21:47:41.831Z,75.00
2018-05-27T21:50:10.230Z,74.70
2018-05-27T21:52:39.224Z,74.20
2018-05-27T21:55:07.619Z,73.70
2018-05-27T21:57:35.998Z,72.30
2018-05-27T22:00:05.193Z,71.70
2018-05-27T22:02:33.717Z,71.20
2018-05-27T22:05:02.897Z,71.70
2018-05-27T22:07:32.041Z,71.80
2018-05-27T22:10:00.448Z,71.70
2018-05-27T22:12:28.833Z,71.20
2018-05-27T22:14:57.278Z,71.70
2018-05-27T22:17:25.680Z,71.90
2018-05-27T22:20:18.529Z,72.20
2018-05-27T22:23:12.843Z,72.40
2018-05-27T22:26:05.224Z,72.90
2018-05-27T22:29:03.412Z,72.70
2018-05-27T22:31:31.825Z,73.00
2018-05-27T22:34:00.229Z,72.70
2018-05-27T22:36:29.398Z,73.00
2018-05-27T22:38:59.276Z,72.90
2018-05-27T22:41:27.736Z,73.10
2018-05-27T22:43:56.118Z,73.20
2018-05-27T22:46:24.575Z,73.10
2018-05-27T22:48:54.549Z,73.40
2018-05-27T22:51:25.159Z,73.50
2018-05-27T22:53:54.113Z,73.50
2018-05-27T22:56:23.062Z,73.60
2018-05-27T22:58:53.756Z,73.90
2018-05-27T23:01:22.625Z,73.70
2018-05-27T23:03:51.514Z,74.20
2018-05-27T23:06:20.368Z,74.20
2018-05-27T23:08:48.801Z,74.20
2018-05-27T23:11:17.940Z,75.10
2018-05-27T23:13:46.338Z,75.10
2018-05-27T23:16:23.947Z,75.30
2018-05-27T23:18:53.885Z,75.80
2018-05-27T23:21:22.885Z,75.80
2018-05-27T23:23:52.800Z,76.20
2018-05-27T23:26:21.520Z,76.90
2018-05-27T23:28:49.935Z,77.50
2018-05-27T23:31:18.436Z,77.50
2018-05-27T23:33:47.739Z,77.60
2018-05-27T23:36:16.918Z,77.80
2018-05-27T23:38:46.069Z,78.50
2018-05-27T23:41:14.530Z,78.40
2018-05-27T23:43:43.020Z,78.60
2018-05-27T23:46:11.420Z,78.30
2018-05-27T23:48:39.833Z,78.80
2018-05-27T23:51:11.348Z,79.70
2018-05-27T23:53:40.723Z,78.90
2018-05-27T23:56:09.330Z,78.50
2018-05-27T23:58:38.670Z,78.80
